Time;durP1;ratioP1;P1;durP2;ratioP2;P2;SDS_P1;SDS_P2;PMS_P1;PMS_P2;Temp;Humidity;BMP_temperature;BMP_pressure;BME280_temperature;BME280_humidity;BME280_pressure;Samples;Min_cycle;Max_cycle;Signal;HPM_P1;HPM_P2
2022/05/17 00:02:01;;;;;;;10.23;5.45;;;18.90;99.90;;;;;;4795128;29;20046;-92
2022/05/17 00:04:28;;;;;;;12.52;6.20;;;18.80;99.90;;;;;;4812591;29;20027;-92
2022/05/17 00:06:55;;;;;;;7.82;4.95;;;18.80;99.90;;;;;;4807956;29;20042;-91
2022/05/17 00:09:22;;;;;;;14.25;5.15;;;18.80;99.90;;;;;;4780842;29;20030;-91
2022/05/17 00:11:49;;;;;;;9.25;5.55;;;18.80;99.90;;;;;;4797242;29;20031;-91
2022/05/17 00:14:17;;;;;;;10.48;5.10;;;18.70;99.90;;;;;;4779829;29;20034;-92
2022/05/17 00:16:45;;;;;;;11.20;5.10;;;18.70;99.90;;;;;;4780530;29;20513;-93
2022/05/17 00:19:16;;;;;;;9.75;5.38;;;18.60;99.90;;;;;;4782072;29;20035;-93
2022/05/17 00:21:44;;;;;;;9.13;5.10;;;18.50;99.90;;;;;;4782720;29;20035;-92
2022/05/17 00:24:20;;;;;;;11.90;5.47;;;18.60;99.90;;;;;;4783861;29;20489;-93
2022/05/17 00:26:46;;;;;;;8.75;5.25;;;18.50;99.90;;;;;;4797938;29;20054;-92
2022/05/17 00:29:13;;;;;;;9.80;5.88;;;18.50;99.90;;;;;;4797334;29;20099;-93
2022/05/17 00:31:40;;;;;;;12.30;5.88;;;18.50;99.90;;;;;;4795579;29;20121;-91
2022/05/17 00:34:07;;;;;;;11.45;5.35;;;18.40;99.90;;;;;;4795886;29;20071;-91
2022/05/17 00:36:35;;;;;;;9.48;4.90;;;18.40;99.90;;;;;;4779759;29;20071;-92
2022/05/17 00:39:03;;;;;;;12.13;5.50;;;18.40;99.90;;;;;;4795402;29;20035;-92
2022/05/17 00:41:30;;;;;;;10.20;5.15;;;18.40;99.90;;;;;;4780078;29;20054;-92
2022/05/17 00:46:58;;;;;;;8.80;4.95;;;18.30;99.90;;;;;;4794654;29;20045;-92
2022/05/17 00:49:37;;;;;;;12.02;5.53;;;18.30;99.90;;;;;;4780748;29;20039;-93
2022/05/17 00:52:18;;;;;;;12.48;5.78;;;18.30;99.90;;;;;;4779498;29;20107;-92
2022/05/17 00:54:45;;;;;;;10.48;5.10;;;18.30;99.90;;;;;;4781135;29;20031;-92
2022/05/17 00:57:35;;;;;;;8.40;5.07;;;18.30;99.90;;;;;;4798404;29;20110;-92
2022/05/17 01:00:08;;;;;;;10.43;4.60;;;18.30;99.90;;;;;;4795310;29;20038;-92
2022/05/17 01:02:35;;;;;;;10.52;4.90;;;18.30;99.90;;;;;;4794297;29;20045;-92
2022/05/17 01:05:04;;;;;;;9.98;4.20;;;18.50;99.90;;;;;;4778795;29;20027;-93
2022/05/17 01:07:46;;;;;;;9.77;4.18;;;18.60;99.90;;;;;;4784313;29;20517;-92
2022/05/17 01:10:13;;;;;;;11.48;4.45;;;18.70;99.90;;;;;;4780785;29;20042;-92
2022/05/17 01:12:41;;;;;;;10.35;5.03;;;18.70;99.90;;;;;;4778886;29;20095;-92
2022/05/17 01:15:11;;;;;;;10.15;4.65;;;18.80;99.90;;;;;;4779916;29;20026;-92
2022/05/17 01:17:40;;;;;;;11.02;5.55;;;18.70;99.90;;;;;;4779281;29;20569;-92
2022/05/17 01:20:11;;;;;;;12.48;4.88;;;18.70;99.90;;;;;;4779391;29;20477;-92
2022/05/17 01:22:38;;;;;;;9.93;4.20;;;18.60;99.90;;;;;;4778789;29;20039;-92
2022/05/17 01:25:06;;;;;;;8.50;4.10;;;18.50;99.90;;;;;;4793253;29;20031;-92
2022/05/17 01:27:50;;;;;;;7.85;4.55;;;18.40;99.90;;;;;;4778249;29;20039;-93
2022/05/17 01:30:18;;;;;;;;;;;18.40;99.90;;;;;;4778721;29;20037;-92
2022/05/17 01:32:46;;;;;;;7.82;4.00;;;18.30;99.90;;;;;;4793113;29;19916;-92
2022/05/17 01:35:16;;;;;;;7.38;4.55;;;18.30;99.90;;;;;;4778130;29;20031;-92
2022/05/17 01:37:43;;;;;;;9.85;4.38;;;18.20;99.90;;;;;;4778264;29;20043;-91
2022/05/17 01:40:10;;;;;;;10.90;4.50;;;18.10;99.90;;;;;;4778276;29;20051;-91
2022/05/17 01:42:37;;;;;;;9.23;4.70;;;18.10;99.90;;;;;;4792947;29;20053;-92
2022/05/17 01:45:09;;;;;;;9.75;4.22;;;18.00;99.90;;;;;;4777934;29;20401;-93
2022/05/17 01:47:35;;;;;;;8.45;4.32;;;18.00;99.90;;;;;;4778024;29;20076;-93
2022/05/17 01:50:02;;;;;;;9.85;4.32;;;18.00;99.90;;;;;;4778068;29;20031;-92
2022/05/17 01:52:29;;;;;;;9.02;4.35;;;18.00;99.90;;;;;;4778239;29;20075;-93
2022/05/17 01:54:56;;;;;;;7.35;4.13;;;17.90;99.90;;;;;;4778525;29;20499;-92
2022/05/17 01:57:22;;;;;;;7.78;4.30;;;17.90;99.90;;;;;;4778935;29;20043;-92
2022/05/17 01:59:49;;;;;;;8.68;4.70;;;17.90;99.90;;;;;;4778809;29;20035;-92
2022/05/17 02:02:17;;;;;;;5.75;4.15;;;17.90;99.90;;;;;;4778015;29;20026;-91
2022/05/17 02:04:44;;;;;;;7.43;4.40;;;17.90;99.90;;;;;;4778290;29;20590;-92
2022/05/17 02:07:11;;;;;;;7.97;4.68;;;17.90;99.90;;;;;;4778146;29;20031;-93
2022/05/17 02:09:38;;;;;;;11.35;4.88;;;17.80;99.90;;;;;;4778280;29;20027;-92
2022/05/17 02:12:05;;;;;;;7.55;4.40;;;17.70;99.90;;;;;;4778500;29;20058;-92
2022/05/17 02:14:32;;;;;;;7.38;3.97;;;17.70;99.90;;;;;;4774543;29;20031;-92
2022/05/17 02:17:02;;;;;;;10.07;4.72;;;17.80;99.90;;;;;;4779362;29;20042;-92
2022/05/17 02:19:31;;;;;;;8.95;4.70;;;17.80;99.90;;;;;;4783821;29;20034;-92
2022/05/17 02:21:58;;;;;;;9.05;4.13;;;17.80;99.90;;;;;;4800149;29;20025;-92
2022/05/17 02:24:27;;;;;;;7.57;4.15;;;17.70;99.90;;;;;;4796505;29;20042;-92
2022/05/17 02:26:55;;;;;;;9.05;4.72;;;17.60;99.90;;;;;;4781813;29;20091;-93
2022/05/17 02:29:23;;;;;;;10.02;4.60;;;17.60;99.90;;;;;;4777407;29;20050;-91
2022/05/17 02:31:53;;;;;;;8.90;4.55;;;17.50;99.90;;;;;;4777422;29;20035;-92
2022/05/17 02:34:20;;;;;;;11.77;4.45;;;17.60;99.90;;;;;;4776853;29;20494;-92
2022/05/17 02:36:49;;;;;;;9.20;4.50;;;17.50;99.90;;;;;;4777382;29;20035;-92
2022/05/17 02:39:16;;;;;;;8.73;4.13;;;17.50;99.90;;;;;;4777193;29;20041;-92
2022/05/17 02:41:43;;;;;;;9.75;5.25;;;17.50;99.90;;;;;;4776801;29;20043;-92
2022/05/17 02:44:10;;;;;;;8.65;5.00;;;17.50;99.90;;;;;;4777029;29;20043;-92
2022/05/17 02:46:37;;;;;;;9.25;4.75;;;17.40;99.90;;;;;;4776761;29;20243;-92
2022/05/17 02:49:07;;;;;;;11.55;5.00;;;17.40;99.90;;;;;;4776968;29;20444;-91
2022/05/17 02:51:34;;;;;;;8.98;4.72;;;17.30;99.90;;;;;;4776719;29;20034;-92
2022/05/17 02:54:05;;;;;;;8.85;4.63;;;17.20;99.90;;;;;;4776965;29;20058;-92
2022/05/17 02:56:33;;;;;;;8.20;5.00;;;17.20;99.90;;;;;;4778027;29;20035;-92
2022/05/17 02:59:00;;;;;;;7.85;4.80;;;17.10;99.90;;;;;;4777198;29;20034;-93
2022/05/17 03:01:27;;;;;;;10.68;4.90;;;17.10;99.90;;;;;;4777001;29;20031;-91
2022/05/17 03:03:53;;;;;;;7.45;4.75;;;17.00;99.90;;;;;;4776850;29;20092;-93
2022/05/17 03:06:20;;;;;;;9.25;5.00;;;16.90;99.90;;;;;;4776933;29;20494;-93
2022/05/17 03:08:47;;;;;;;6.85;4.70;;;16.90;99.90;;;;;;4776766;29;20383;-92
2022/05/17 03:11:15;;;;;;;7.00;4.50;;;16.80;99.90;;;;;;4776857;29;20026;-92
2022/05/17 03:13:42;;;;;;;7.57;4.38;;;16.80;99.90;;;;;;4776377;29;20091;-92
2022/05/17 03:16:10;;;;;;;12.35;5.07;;;16.70;99.90;;;;;;4776517;29;20031;-91
2022/05/17 03:18:42;;;;;;;11.45;4.75;;;16.70;99.90;;;;;;4779782;29;20023;-91
2022/05/17 03:21:17;;;;;;;9.57;5.18;;;16.70;99.90;;;;;;4788156;30;20043;-91
2022/05/17 03:23:45;;;;;;;11.82;5.07;;;16.70;99.90;;;;;;4770519;30;20076;-93
2022/05/17 03:26:15;;;;;;;11.68;6.00;;;16.70;99.90;;;;;;4766905;30;20031;-91
2022/05/17 03:28:42;;;;;;;14.02;5.20;;;16.60;99.90;;;;;;4779319;30;20035;-91
2022/05/17 03:31:10;;;;;;;10.18;5.60;;;16.60;99.90;;;;;;4778228;30;20043;-92
2022/05/17 03:33:48;;;;;;;13.45;6.03;;;16.50;99.90;;;;;;4792657;30;20043;-93
2022/05/17 03:36:17;;;;;;;14.73;5.35;;;16.50;99.90;;;;;;4776803;30;20048;-93
2022/05/17 03:38:45;;;;;;;14.10;5.60;;;16.60;99.90;;;;;;4799468;30;20051;-92
2022/05/17 03:41:22;;;;;;;10.93;6.10;;;16.50;99.90;;;;;;4785598;30;20051;-92
2022/05/17 03:43:49;;;;;;;11.65;5.95;;;16.40;99.90;;;;;;4775434;30;20047;-92
2022/05/17 03:46:15;;;;;;;9.57;5.57;;;16.40;99.90;;;;;;4772898;30;20401;-93
2022/05/17 03:48:42;;;;;;;12.15;6.75;;;16.40;99.90;;;;;;4790858;30;20043;-93
2022/05/17 03:51:15;;;;;;;19.88;8.70;;;16.40;99.90;;;;;;4773073;29;20482;-92
2022/05/17 03:53:42;;;;;;;20.42;9.27;;;16.40;99.90;;;;;;4774451;30;20079;-93
2022/05/17 03:56:10;;;;;;;21.70;9.88;;;16.40;99.90;;;;;;4773698;30;20101;-92
2022/05/17 03:58:38;;;;;;;21.42;9.75;;;16.50;99.90;;;;;;4792260;29;20057;-92
2022/05/17 04:01:06;;;;;;;20.60;9.80;;;16.60;99.90;;;;;;4809719;29;20118;-92
2022/05/17 04:03:33;;;;;;;20.65;9.57;;;16.60;99.90;;;;;;4808857;29;20034;-92
2022/05/17 04:06:01;;;;;;;20.52;9.90;;;16.80;99.90;;;;;;4809152;29;20565;-94
2022/05/17 04:08:28;;;;;;;18.45;9.00;;;16.90;99.90;;;;;;4795993;29;20520;-91
2022/05/17 04:10:58;;;;;;;15.90;8.88;;;17.10;99.90;;;;;;4791848;29;20123;-92
2022/05/17 04:13:29;;;;;;;23.17;10.13;;;17.20;99.90;;;;;;4791714;29;20041;-92
2022/05/17 04:16:00;;;;;;;14.88;8.55;;;17.30;99.90;;;;;;4754999;30;20135;-92
2022/05/17 04:18:28;;;;;;;15.02;8.98;;;17.40;99.90;;;;;;4770097;30;20195;-92
2022/05/17 04:21:03;;;;;;;20.08;9.20;;;17.50;99.90;;;;;;4770529;30;20051;-92
2022/05/17 04:23:30;;;;;;;18.50;9.23;;;17.60;99.90;;;;;;4788128;29;20046;-91
2022/05/17 04:25:58;;;;;;;16.45;8.35;;;17.70;99.90;;;;;;4774451;30;20043;-92
2022/05/17 04:28:25;;;;;;;16.70;8.38;;;17.90;99.90;;;;;;4791521;30;20042;-93
2022/05/17 04:30:52;;;;;;;13.85;8.48;;;18.10;99.90;;;;;;4776942;30;20040;-92
2022/05/17 04:33:19;;;;;;;20.77;8.40;;;18.20;99.90;;;;;;4795811;29;20055;-92
2022/05/17 04:35:46;;;;;;;16.55;7.88;;;18.60;99.90;;;;;;4797280;30;20069;-91
2022/05/17 04:38:14;;;;;;;11.20;7.28;;;19.10;99.90;;;;;;4777551;30;20089;-92
2022/05/17 04:40:41;;;;;;;14.95;7.68;;;20.40;99.90;;;;;;4775550;30;20478;-92
2022/05/17 04:43:09;;;;;;;11.30;7.43;;;22.40;99.90;;;;;;4775089;30;20061;-92
2022/05/17 04:45:36;;;;;;;13.38;7.43;;;24.50;99.90;;;;;;4775094;30;20031;-92
2022/05/17 04:48:03;;;;;;;13.13;7.65;;;26.10;99.90;;;;;;4793947;29;20107;-93
2022/05/17 04:50:30;;;;;;;12.70;7.88;;;27.40;99.90;;;;;;4794042;29;20026;-93
2022/05/17 04:52:57;;;;;;;8.50;6.78;;;28.10;99.90;;;;;;4779296;29;20439;-93
2022/05/17 04:55:25;;;;;;;13.18;8.45;;;29.00;99.90;;;;;;4778940;29;20489;-93
2022/05/17 04:57:52;;;;;;;14.88;8.48;;;29.80;99.90;;;;;;4778852;29;20043;-93
2022/05/17 05:00:23;;;;;;;13.73;9.05;;;30.30;99.90;;;;;;4779383;29;20084;-93
2022/05/17 05:02:51;;;;;;;12.90;8.80;;;30.80;99.90;;;;;;4779125;29;20034;-93
2022/05/17 05:05:19;;;;;;;11.52;8.40;;;31.30;99.90;;;;;;4779360;29;20062;-92
2022/05/17 05:07:46;;;;;;;9.02;7.40;;;31.30;99.90;;;;;;4779489;29;20038;-93
2022/05/17 05:10:14;;;;;;;14.23;8.18;;;31.40;99.90;;;;;;4778593;29;20038;-94
2022/05/17 05:12:41;;;;;;;15.07;8.25;;;31.60;99.90;;;;;;4779148;29;20031;-93
2022/05/17 05:15:09;;;;;;;19.63;8.07;;;32.50;99.90;;;;;;4779076;29;20055;-93
2022/05/17 05:17:38;;;;;;;14.57;7.97;;;32.30;99.90;;;;;;4778773;29;20054;-91
2022/05/17 05:20:08;;;;;;;15.85;7.60;;;31.70;99.90;;;;;;4779079;29;20035;-93
2022/05/17 05:22:35;;;;;;;13.30;8.45;;;31.30;99.90;;;;;;4779382;29;20031;-92
2022/05/17 05:25:06;;;;;;;15.50;7.60;;;31.50;99.90;;;;;;4778993;29;20111;-93
2022/05/17 05:27:35;;;;;;;12.75;8.52;;;32.20;99.90;;;;;;4778650;29;20066;-93
2022/05/17 05:30:04;;;;;;;13.82;6.97;;;32.30;99.90;;;;;;4778789;29;20034;-93
2022/05/17 05:32:31;;;;;;;15.05;7.85;;;32.90;99.90;;;;;;4778406;29;20053;-93
2022/05/17 05:34:58;;;;;;;11.57;6.70;;;33.20;99.90;;;;;;4780638;29;20034;-89
2022/05/17 05:37:24;;;;;;;12.63;7.47;;;33.10;99.90;;;;;;4777394;29;20046;-88
2022/05/17 05:39:51;;;;;;;13.25;7.18;;;33.30;99.90;;;;;;4777578;29;20034;-89
2022/05/17 05:42:18;;;;;;;10.00;7.20;;;33.50;99.90;;;;;;4791997;29;20096;-87
2022/05/17 05:44:45;;;;;;;11.68;7.72;;;34.10;99.90;;;;;;4791964;29;20035;-87
2022/05/17 05:47:11;;;;;;;14.18;8.00;;;34.20;99.90;;;;;;4791939;29;20038;-88
2022/05/17 05:49:38;;;;;;;9.35;6.55;;;34.10;99.90;;;;;;4777361;29;20031;-87
2022/05/17 05:52:05;;;;;;;10.10;6.70;;;34.40;99.90;;;;;;4777260;29;20054;-85
2022/05/17 05:54:32;;;;;;;12.18;6.75;;;34.30;99.90;;;;;;4808272;29;20035;-87
2022/05/17 05:57:02;;;;;;;11.43;6.28;;;33.70;99.90;;;;;;4791859;29;20035;-88
2022/05/17 05:59:47;;;;;;;10.40;7.30;;;34.00;99.90;;;;;;4792228;29;20039;-86
2022/05/17 06:02:14;;;;;;;8.75;6.90;;;34.20;99.90;;;;;;4779603;29;20079;-88
2022/05/17 06:04:41;;;;;;;9.82;7.72;;;34.60;99.90;;;;;;4762679;29;20043;-87
2022/05/17 06:07:08;;;;;;;8.93;7.22;;;34.50;99.90;;;;;;4776931;29;20067;-87
2022/05/17 06:09:36;;;;;;;12.40;8.05;;;34.60;99.90;;;;;;4791727;29;20023;-88
2022/05/17 06:12:03;;;;;;;9.23;7.90;;;34.70;99.90;;;;;;4791649;29;20145;-88
2022/05/17 06:14:30;;;;;;;9.10;8.05;;;34.90;99.90;;;;;;4776734;29;20459;-87
2022/05/17 06:16:56;;;;;;;11.82;7.55;;;34.90;99.90;;;;;;4791586;29;20046;-86
2022/05/17 06:19:24;;;;;;;8.15;7.07;;;34.90;99.90;;;;;;4776894;29;20123;-87
2022/05/17 06:21:51;;;;;;;7.28;6.50;;;34.60;99.90;;;;;;4776777;29;20375;-87
2022/05/17 06:24:19;;;;;;;12.40;7.10;;;34.70;99.90;;;;;;4791712;29;20034;-88
2022/05/17 06:26:46;;;;;;;8.35;6.43;;;34.90;99.90;;;;;;4776760;29;20545;-88
2022/05/17 06:29:12;;;;;;;14.48;7.20;;;35.00;99.90;;;;;;4776802;29;20049;-87
2022/05/17 06:31:40;;;;;;;8.02;7.13;;;34.90;99.90;;;;;;4776474;29;20031;-87
2022/05/17 06:34:10;;;;;;;9.23;8.32;;;34.60;99.90;;;;;;4776374;29;20103;-87
2022/05/17 06:36:38;;;;;;;10.25;8.07;;;35.00;99.90;;;;;;4776237;29;20117;-86
2022/05/17 06:39:08;;;;;;;10.85;8.60;;;35.40;99.90;;;;;;4807626;29;20084;-87
2022/05/17 06:41:36;;;;;;;10.20;8.68;;;35.60;99.90;;;;;;4790778;29;20509;-87
2022/05/17 06:44:03;;;;;;;9.57;8.68;;;36.50;99.90;;;;;;4776326;29;20038;-89
2022/05/17 06:46:32;;;;;;;15.98;9.48;;;36.70;99.90;;;;;;4793751;29;20074;-87
2022/05/17 06:49:00;;;;;;;11.63;9.57;;;36.60;99.90;;;;;;4792178;29;20054;-87
2022/05/17 06:51:27;;;;;;;11.07;9.55;;;36.60;99.90;;;;;;4775918;29;20088;-88
2022/05/17 06:53:54;;;;;;;12.80;10.10;;;36.80;99.90;;;;;;4790594;29;20114;-87
2022/05/17 06:56:20;;;;;;;13.75;9.77;;;37.00;99.90;;;;;;4790744;29;20035;-88
2022/05/17 06:58:47;;;;;;;15.35;10.88;;;37.50;99.90;;;;;;4775820;29;20050;-87
2022/05/17 07:01:17;;;;;;;16.15;9.80;;;37.00;99.90;;;;;;4790760;29;20038;-87
2022/05/17 07:03:43;;;;;;;12.82;9.63;;;37.00;99.90;;;;;;4790955;29;20031;-88
2022/05/17 07:06:11;;;;;;;11.98;9.98;;;37.30;99.90;;;;;;4775941;29;20167;-86
2022/05/17 07:08:37;;;;;;;13.50;10.00;;;37.00;99.90;;;;;;4775693;29;20427;-87
2022/05/17 07:13:49;;;;;;;13.27;10.55;;;37.60;99.90;;;;;;4790359;29;20035;-88
2022/05/17 07:16:16;;;;;;;11.98;10.88;;;38.70;99.90;;;;;;4790464;29;20058;-88
2022/05/17 07:18:43;;;;;;;12.07;9.75;;;39.20;99.90;;;;;;4790276;29;20494;-88
2022/05/17 07:21:13;;;;;;;11.45;10.45;;;38.60;99.90;;;;;;4775447;29;20043;-88
2022/05/17 07:23:43;;;;;;;13.65;10.52;;;38.50;99.90;;;;;;4790670;29;20090;-88
2022/05/17 07:26:12;;;;;;;14.60;9.70;;;38.60;99.90;;;;;;4775676;29;20493;-88
2022/05/17 07:28:40;;;;;;;11.88;10.10;;;38.60;99.90;;;;;;4775717;29;20031;-89
2022/05/17 07:31:08;;;;;;;16.60;10.38;;;38.50;99.90;;;;;;4791053;29;20030;-89
2022/05/17 07:33:37;;;;;;;11.48;10.40;;;38.10;99.90;;;;;;4775885;29;20031;-87
2022/05/17 07:36:06;;;;;;;11.43;10.27;;;38.40;99.90;;;;;;4790810;29;20026;-88
2022/05/17 07:38:33;;;;;;;12.13;11.02;;;38.60;99.10;;;;;;4790827;29;20521;-89
2022/05/17 07:40:59;;;;;;;12.35;11.07;;;38.60;98.90;;;;;;4775683;29;20147;-88
2022/05/17 07:43:26;;;;;;;12.18;11.07;;;38.60;99.00;;;;;;4790884;29;20489;-90
2022/05/17 07:45:57;;;;;;;11.40;10.40;;;38.50;98.50;;;;;;4790966;29;20027;-89
2022/05/17 07:48:25;;;;;;;11.70;10.60;;;38.50;98.30;;;;;;4790732;29;20034;-88
2022/05/17 07:50:52;;;;;;;12.30;11.13;;;38.40;98.20;;;;;;4790634;29;20409;-88
2022/05/17 07:53:21;;;;;;;12.20;10.73;;;38.80;98.30;;;;;;4790612;29;20105;-89
2022/05/17 07:55:51;;;;;;;11.55;10.43;;;38.90;98.00;;;;;;4790891;29;20037;-88
2022/05/17 07:58:18;;;;;;;10.88;9.98;;;38.50;97.80;;;;;;4790707;29;20039;-88
2022/05/17 08:00:51;;;;;;;13.10;10.85;;;37.60;98.10;;;;;;4792042;29;20075;-88
2022/05/17 08:03:21;;;;;;;12.48;10.52;;;37.50;98.40;;;;;;4794673;29;20038;-90
2022/05/17 08:05:51;;;;;;;11.38;10.27;;;37.70;98.50;;;;;;4794685;29;20043;-90
2022/05/17 08:08:19;;;;;;;11.40;10.30;;;38.10;98.30;;;;;;4794120;29;20039;-90
2022/05/17 08:10:54;;;;;;;11.77;10.68;;;38.00;97.80;;;;;;4779660;29;20027;-92
2022/05/17 08:13:23;;;;;;;12.02;10.75;;;38.20;97.80;;;;;;4794380;29;20073;-90
2022/05/17 08:15:50;;;;;;;14.45;11.50;;;38.20;97.60;;;;;;4794357;29;20053;-90
2022/05/17 08:18:18;;;;;;;12.10;10.68;;;37.70;97.90;;;;;;4794505;29;20053;-90
2022/05/17 08:20:46;;;;;;;10.77;9.73;;;37.20;98.20;;;;;;4794053;29;20084;-91
2022/05/17 08:23:14;;;;;;;14.13;9.57;;;37.20;98.40;;;;;;4779375;29;20411;-92
2022/05/17 08:28:26;;;;;;;13.85;9.63;;;35.40;99.10;;;;;;4794058;29;20035;-89
2022/05/17 08:30:56;;;;;;;10.60;8.63;;;35.40;98.80;;;;;;4779172;29;20045;-89
2022/05/17 08:33:26;;;;;;;27.63;11.13;;;35.80;98.70;;;;;;4779423;29;20035;-89
2022/05/17 08:35:55;;;;;;;12.68;8.75;;;35.60;98.90;;;;;;4796964;29;20031;-88
2022/05/17 08:38:30;;;;;;;13.85;8.90;;;34.80;99.20;;;;;;4793899;29;20069;-89
2022/05/17 08:41:01;;;;;;;16.67;9.65;;;34.80;99.50;;;;;;4779362;29;20054;-89
2022/05/17 08:43:49;;;;;;;11.63;9.50;;;35.10;99.20;;;;;;4794456;29;20039;-93
2022/05/17 08:46:23;;;;;;;9.95;8.45;;;34.80;99.40;;;;;;4794051;29;20053;-92
2022/05/17 08:49:07;;;;;;;10.65;9.23;;;34.00;99.90;;;;;;4794218;29;20509;-91
2022/05/17 08:51:42;;;;;;;9.85;8.80;;;33.60;99.90;;;;;;4780538;29;20045;-91
2022/05/17 08:54:14;;;;;;;12.48;9.60;;;33.70;99.90;;;;;;4782217;29;20086;-91
2022/05/17 08:57:04;;;;;;;11.73;9.13;;;34.00;99.90;;;;;;4802279;29;20090;-91
2022/05/17 08:59:37;;;;;;;14.13;8.82;;;34.20;99.50;;;;;;4801575;29;20230;-92
2022/05/17 09:02:40;;;;;;;10.27;9.30;;;34.10;99.70;;;;;;4779338;29;20035;-90
2022/05/17 09:05:59;;;;;;;10.43;9.15;;;33.30;99.90;;;;;;4778745;29;20074;-87
2022/05/17 09:09:01;;;;;;;16.58;8.75;;;32.70;99.90;;;;;;4740109;30;20048;-87
2022/05/17 09:11:51;;;;;;;12.43;9.40;;;31.90;99.90;;;;;;4756086;30;20089;-88
2022/05/17 09:14:22;;;;;;;12.98;8.85;;;31.60;99.90;;;;;;4742165;30;20104;-90
2022/05/17 09:17:01;;;;;;;9.35;8.52;;;31.70;99.90;;;;;;4771442;30;20064;-90
2022/05/17 09:19:28;;;;;;;9.80;8.80;;;32.00;99.90;;;;;;4757088;30;20048;-90
2022/05/17 09:22:02;;;;;;;11.50;8.90;;;32.10;99.90;;;;;;4756916;30;20073;-91
2022/05/17 11:03:16;;;;;;;6.70;6.10;;;28.90;99.90;;;;;;4780907;30;20041;-92
2022/05/17 11:06:07;;;;;;;8.07;7.05;;;29.10;99.90;;;;;;4760873;30;20064;-92
2022/05/17 11:12:38;;;;;;;8.77;7.03;;;29.30;99.90;;;;;;5227200;24;20059;-94
2022/05/17 11:20:57;;;;;;;8.85;7.07;;;29.20;99.90;;;;;;4795603;30;20051;-94
2022/05/17 11:23:28;;;;;;;8.90;7.38;;;29.30;99.90;;;;;;4791538;29;20046;-90
2022/05/17 11:26:32;;;;;;;7.07;6.47;;;29.20;99.90;;;;;;4806855;29;20504;-94
2022/05/17 11:29:23;;;;;;;7.63;6.75;;;29.00;99.90;;;;;;4793729;29;20043;-93
2022/05/17 11:32:21;;;;;;;7.10;6.40;;;29.00;99.90;;;;;;4789757;30;20043;-93
2022/05/17 11:34:53;;;;;;;9.07;6.78;;;29.00;99.90;;;;;;4769441;30;20043;-91
2022/05/17 11:37:37;;;;;;;7.35;6.63;;;28.90;99.90;;;;;;4769456;30;20146;-92
2022/05/17 11:40:49;;;;;;;8.15;7.35;;;28.80;99.90;;;;;;4770132;30;20043;-93
2022/05/17 11:43:47;;;;;;;6.93;6.32;;;28.60;99.90;;;;;;4770926;30;20502;-91
2022/05/17 11:46:30;;;;;;;8.45;7.30;;;28.90;99.90;;;;;;4754592;30;20165;-90
2022/05/17 11:49:28;;;;;;;7.78;6.97;;;29.20;99.90;;;;;;4757744;30;20067;-93
2022/05/17 11:52:00;;;;;;;12.10;7.05;;;29.30;99.90;;;;;;4768967;24;20043;-91
2022/05/17 11:54:53;;;;;;;8.85;7.00;;;29.40;99.90;;;;;;4779787;29;20039;-92
2022/05/17 11:57:37;;;;;;;7.95;7.25;;;29.50;99.90;;;;;;4775708;30;20091;-90
2022/05/17 12:00:41;;;;;;;7.68;6.93;;;29.20;99.90;;;;;;4779652;30;20031;-95
2022/05/17 12:04:09;;;;;;;7.88;7.28;;;29.40;99.90;;;;;;4764461;30;20047;-94
2022/05/17 12:06:44;;;;;;;7.03;6.38;;;29.20;99.90;;;;;;4709005;30;20105;-92
2022/05/17 12:10:10;;;;;;;7.03;6.43;;;29.00;99.90;;;;;;4726334;30;20053;-93
2022/05/17 12:22:00;;;;;;;8.07;7.38;;;29.10;99.90;;;;;;5245299;24;20141;-90
2022/05/17 12:24:55;;;;;;;7.50;6.88;;;29.60;99.90;;;;;;4771903;29;20103;-91
2022/05/17 12:27:42;;;;;;;7.93;7.07;;;29.70;99.90;;;;;;4777187;29;20061;-91
2022/05/17 12:33:17;;;;;;;9.05;6.70;;;29.30;99.90;;;;;;4773654;30;20123;-89
2022/05/17 12:35:46;;;;;;;7.18;6.57;;;29.00;99.90;;;;;;4760416;30;20393;-91
2022/05/17 12:44:21;;;;;;;8.35;7.50;;;29.70;99.90;;;;;;4773618;30;20288;-92
2022/05/17 12:47:01;;;;;;;7.85;7.10;;;29.40;99.90;;;;;;4774536;30;20036;-91
2022/05/17 12:49:38;;;;;;;7.63;6.85;;;29.10;99.90;;;;;;4778174;30;20062;-89
2022/05/17 12:52:30;;;;;;;8.93;7.13;;;29.30;99.90;;;;;;4776756;30;20043;-91
2022/05/17 12:55:21;;;;;;;7.15;6.63;;;29.50;99.90;;;;;;4762344;30;20075;-90
2022/05/17 12:57:49;;;;;;;7.55;6.95;;;29.70;99.90;;;;;;4762153;30;20126;-92
2022/05/17 13:00:29;;;;;;;7.65;6.80;;;29.70;99.90;;;;;;4777187;30;20035;-91
2022/05/17 13:03:01;;;;;;;7.57;6.88;;;29.60;99.90;;;;;;4762488;30;20122;-89
2022/05/17 13:05:46;;;;;;;8.13;7.35;;;29.70;99.90;;;;;;4763432;30;20122;-90
2022/05/17 13:08:21;;;;;;;7.70;6.95;;;29.80;99.90;;;;;;4761295;30;20108;-91
2022/05/17 13:11:02;;;;;;;6.95;6.35;;;29.50;99.90;;;;;;4777779;30;20038;-88
2022/05/17 13:13:31;;;;;;;7.55;6.93;;;29.10;99.90;;;;;;4761190;30;20034;-89
2022/05/17 13:16:21;;;;;;;12.75;7.45;;;29.10;99.90;;;;;;4776385;30;20088;-89
2022/05/17 13:18:52;;;;;;;8.50;6.50;;;29.30;99.90;;;;;;4776186;30;20047;-90
2022/05/17 13:24:39;;;;;;;7.63;7.05;;;29.10;99.90;;;;;;4776612;30;20039;-90
2022/05/17 13:27:12;;;;;;;8.68;6.75;;;29.10;99.90;;;;;;4776679;30;20031;-88
2022/05/17 13:29:41;;;;;;;7.45;6.80;;;29.20;99.90;;;;;;4777960;30;20027;-90
2022/05/17 13:32:17;;;;;;;7.03;6.32;;;29.30;99.90;;;;;;4773620;29;20093;-89
2022/05/17 13:35:08;;;;;;;7.53;6.93;;;29.20;99.90;;;;;;4789523;30;20447;-89
2022/05/17 13:37:54;;;;;;;7.72;7.00;;;29.30;99.90;;;;;;4778300;30;20039;-90
2022/05/17 13:40:42;;;;;;;7.53;6.80;;;29.30;99.90;;;;;;4776204;30;20406;-89
2022/05/17 13:43:31;;;;;;;7.75;7.00;;;29.30;99.90;;;;;;4775031;30;20042;-91
2022/05/17 13:46:19;;;;;;;7.53;6.82;;;29.00;99.90;;;;;;4760270;30;20032;-89
2022/05/17 13:48:48;;;;;;;6.85;6.25;;;28.90;99.90;;;;;;4775023;30;20035;-90
2022/05/17 13:51:33;;;;;;;9.45;6.88;;;29.00;99.90;;;;;;4774809;30;20047;-92
2022/05/17 13:54:27;;;;;;;8.57;7.13;;;29.10;99.90;;;;;;4760416;30;20069;-92
2022/05/17 13:57:23;;;;;;;7.60;7.00;;;29.30;99.90;;;;;;4776807;30;20135;-91
2022/05/17 14:00:16;;;;;;;7.72;6.97;;;29.60;99.90;;;;;;4758715;30;20049;-92
2022/05/17 14:02:59;;;;;;;7.30;6.80;;;29.20;99.90;;;;;;4756258;30;20320;-92
2022/05/17 14:05:39;;;;;;;7.88;6.88;;;29.10;99.90;;;;;;4759909;30;20027;-93
2022/05/17 14:13:56;;;;;;;7.53;6.80;;;29.30;99.90;;;;;;4778630;30;20050;-91
2022/05/17 14:16:27;;;;;;;7.80;6.93;;;29.60;99.90;;;;;;4777483;30;20059;-91
2022/05/17 14:19:04;;;;;;;8.05;7.35;;;29.30;99.90;;;;;;4776999;30;20070;-91
2022/05/17 14:21:33;;;;;;;8.35;7.63;;;29.20;99.90;;;;;;4764193;30;20035;-93
2022/05/17 14:24:00;;;;;;;11.20;7.63;;;29.50;99.90;;;;;;5280112;24;20165;-91
2022/05/17 14:26:53;;;;;;;7.95;7.25;;;29.30;99.90;;;;;;4808865;29;20497;-91
2022/05/17 14:29:25;;;;;;;8.50;7.72;;;29.50;99.90;;;;;;4774484;30;20043;-89
2022/05/17 14:32:05;;;;;;;8.68;7.28;;;29.80;99.90;;;;;;4782792;30;20031;-91
2022/05/17 14:34:48;;;;;;;8.80;8.02;;;29.90;99.90;;;;;;4799402;30;20047;-91
2022/05/17 14:37:15;;;;;;;9.20;8.02;;;29.90;99.90;;;;;;4799158;30;20151;-94
2022/05/17 14:39:43;;;;;;;8.32;7.60;;;30.10;99.90;;;;;;4776733;30;20088;-92
2022/05/17 14:42:13;;;;;;;8.20;7.50;;;30.30;99.90;;;;;;4773794;30;20036;-90
2022/05/17 14:44:40;;;;;;;7.97;7.22;;;30.40;99.90;;;;;;4788541;30;20118;-92
2022/05/17 14:47:21;;;;;;;8.93;7.90;;;30.30;99.90;;;;;;4773819;30;20042;-91
2022/05/17 14:49:57;;;;;;;8.30;7.65;;;30.20;99.90;;;;;;4788707;29;20114;-90
2022/05/17 14:52:37;;;;;;;8.45;7.13;;;30.10;99.90;;;;;;4788649;30;20046;-89
2022/05/17 14:55:14;;;;;;;8.88;8.07;;;29.90;99.90;;;;;;4786844;30;20118;-89
2022/05/17 14:57:41;;;;;;;24.55;8.35;;;29.50;99.90;;;;;;4788472;30;20054;-90
2022/05/17 15:00:15;;;;;;;20.63;8.63;;;29.30;99.90;;;;;;4788776;29;20035;-91
2022/05/17 15:02:48;;;;;;;;;;;29.30;99.90;;;;;;4788910;30;20482;-90
2022/05/17 15:05:17;;;;;;;10.60;7.43;;;29.20;99.90;;;;;;4773740;30;19956;-90
2022/05/17 15:07:48;;;;;;;9.93;7.55;;;28.90;99.90;;;;;;4788598;30;20104;-90
2022/05/17 15:10:17;;;;;;;8.55;7.20;;;28.90;99.90;;;;;;4773315;30;20043;-91
2022/05/17 15:12:44;;;;;;;8.00;7.40;;;29.00;99.90;;;;;;4773483;30;20035;-91
2022/05/17 15:15:24;;;;;;;7.63;7.03;;;28.90;99.90;;;;;;4788335;30;20035;-90
2022/05/17 15:18:14;;;;;;;8.55;7.10;;;28.70;99.90;;;;;;4788035;30;20047;-92
2022/05/17 15:20:41;;;;;;;10.35;7.35;;;28.50;99.90;;;;;;4788486;29;20031;-92
2022/05/17 15:23:10;;;;;;;7.90;7.10;;;28.30;99.90;;;;;;4788453;30;20031;-91
2022/05/17 15:25:37;;;;;;;8.88;7.00;;;28.10;99.90;;;;;;4770370;30;20410;-90
2022/05/17 15:28:06;;;;;;;7.85;6.90;;;28.00;99.90;;;;;;4755456;30;20059;-91
2022/05/17 15:30:33;;;;;;;7.50;6.90;;;28.00;99.90;;;;;;4755471;30;20038;-91
2022/05/17 15:32:59;;;;;;;8.93;7.18;;;28.10;99.90;;;;;;4755523;30;20031;-90